sensor_id;sensor_type;location;lat;lon;timestamp;temperature;humidity
75769;DHT22;64379;48.888;8.330;2024-03-07T00:00:45;5.50;92.20
75769;DHT22;64379;48.888;8.330;2024-03-07T00:03:11;5.50;92.20
75769;DHT22;64379;48.888;8.330;2024-03-07T00:05:36;5.50;92.20
75769;DHT22;64379;48.888;8.330;2024-03-07T00:08:02;5.40;92.30
75769;DHT22;64379;48.888;8.330;2024-03-07T00:10:28;5.50;92.30
75769;DHT22;64379;48.888;8.330;2024-03-07T00:12:53;5.40;92.50
75769;DHT22;64379;48.888;8.330;2024-03-07T00:15:19;5.30;92.40
75769;DHT22;64379;48.888;8.330;2024-03-07T00:17:46;5.30;92.50
75769;DHT22;64379;48.888;8.330;2024-03-07T00:20:12;5.20;92.50
75769;DHT22;64379;48.888;8.330;2024-03-07T00:22:41;5.10;92.60
75769;DHT22;64379;48.888;8.330;2024-03-07T00:25:07;5.10;92.70
75769;DHT22;64379;48.888;8.330;2024-03-07T00:27:35;5.20;92.80
75769;DHT22;64379;48.888;8.330;2024-03-07T00:30:05;5.20;92.80
75769;DHT22;64379;48.888;8.330;2024-03-07T00:32:31;5.10;92.80
75769;DHT22;64379;48.888;8.330;2024-03-07T00:35:01;5.20;92.80
75769;DHT22;64379;48.888;8.330;2024-03-07T00:37:28;5.10;92.80
75769;DHT22;64379;48.888;8.330;2024-03-07T00:39:54;5.10;92.80
75769;DHT22;64379;48.888;8.330;2024-03-07T00:42:19;5.20;92.90
75769;DHT22;64379;48.888;8.330;2024-03-07T00:44:45;5.30;92.90
75769;DHT22;64379;48.888;8.330;2024-03-07T00:47:12;5.30;92.90
75769;DHT22;64379;48.888;8.330;2024-03-07T00:49:37;5.20;92.90
75769;DHT22;64379;48.888;8.330;2024-03-07T00:52:03;5.30;92.90
75769;DHT22;64379;48.888;8.330;2024-03-07T00:54:28;5.30;92.90
75769;DHT22;64379;48.888;8.330;2024-03-07T00:56:54;5.30;92.90
75769;DHT22;64379;48.888;8.330;2024-03-07T00:59:20;5.30;92.80
75769;DHT22;64379;48.888;8.330;2024-03-07T01:01:46;5.30;92.80
75769;DHT22;64379;48.888;8.330;2024-03-07T01:04:12;5.30;92.90
75769;DHT22;64379;48.888;8.330;2024-03-07T01:06:37;5.30;92.90
75769;DHT22;64379;48.888;8.330;2024-03-07T01:09:03;5.30;92.90
75769;DHT22;64379;48.888;8.330;2024-03-07T01:11:29;5.40;92.90
75769;DHT22;64379;48.888;8.330;2024-03-07T01:13:55;5.50;92.90
75769;DHT22;64379;48.888;8.330;2024-03-07T01:16:22;5.50;93.00
75769;DHT22;64379;48.888;8.330;2024-03-07T01:18:47;5.50;92.90
75769;DHT22;64379;48.888;8.330;2024-03-07T01:21:14;5.50;92.90
75769;DHT22;64379;48.888;8.330;2024-03-07T01:23:40;5.50;92.80
75769;DHT22;64379;48.888;8.330;2024-03-07T01:26:05;5.50;92.70
75769;DHT22;64379;48.888;8.330;2024-03-07T01:28:31;5.50;92.60
75769;DHT22;64379;48.888;8.330;2024-03-07T01:30:57;5.60;92.30
75769;DHT22;64379;48.888;8.330;2024-03-07T01:33:23;5.60;91.60
75769;DHT22;64379;48.888;8.330;2024-03-07T01:35:49;5.70;91.10
75769;DHT22;64379;48.888;8.330;2024-03-07T01:38:16;5.80;90.20
75769;DHT22;64379;48.888;8.330;2024-03-07T01:40:43;5.80;89.60
75769;DHT22;64379;48.888;8.330;2024-03-07T01:43:09;5.80;89.20
75769;DHT22;64379;48.888;8.330;2024-03-07T01:45:35;5.80;88.80
75769;DHT22;64379;48.888;8.330;2024-03-07T01:48:04;5.70;88.60
75769;DHT22;64379;48.888;8.330;2024-03-07T01:50:31;5.60;88.60
75769;DHT22;64379;48.888;8.330;2024-03-07T01:52:59;5.60;88.50
75769;DHT22;64379;48.888;8.330;2024-03-07T01:55:25;5.70;87.80
75769;DHT22;64379;48.888;8.330;2024-03-07T01:57:51;5.60;87.50
75769;DHT22;64379;48.888;8.330;2024-03-07T02:00:17;5.60;87.40
75769;DHT22;64379;48.888;8.330;2024-03-07T02:02:44;5.60;87.20
75769;DHT22;64379;48.888;8.330;2024-03-07T02:05:10;5.70;86.30
75769;DHT22;64379;48.888;8.330;2024-03-07T02:07:36;5.70;85.80
75769;DHT22;64379;48.888;8.330;2024-03-07T02:10:03;5.70;85.40
75769;DHT22;64379;48.888;8.330;2024-03-07T02:12:29;5.70;85.00
75769;DHT22;64379;48.888;8.330;2024-03-07T02:14:56;5.60;84.90
75769;DHT22;64379;48.888;8.330;2024-03-07T02:17:26;5.60;84.80
75769;DHT22;64379;48.888;8.330;2024-03-07T02:19:52;5.60;85.00
75769;DHT22;64379;48.888;8.330;2024-03-07T02:22:18;5.60;84.90
75769;DHT22;64379;48.888;8.330;2024-03-07T02:24:43;5.60;84.10
75769;DHT22;64379;48.888;8.330;2024-03-07T02:27:10;5.70;83.90
75769;DHT22;64379;48.888;8.330;2024-03-07T02:29:36;5.60;83.90
75769;DHT22;64379;48.888;8.330;2024-03-07T02:32:02;5.60;83.50
75769;DHT22;64379;48.888;8.330;2024-03-07T02:34:28;5.60;83.70
75769;DHT22;64379;48.888;8.330;2024-03-07T02:36:54;5.60;83.60
75769;DHT22;64379;48.888;8.330;2024-03-07T02:39:20;5.50;83.80
75769;DHT22;64379;48.888;8.330;2024-03-07T02:41:46;5.50;84.00
75769;DHT22;64379;48.888;8.330;2024-03-07T02:44:13;5.40;84.00
75769;DHT22;64379;48.888;8.330;2024-03-07T02:46:40;5.30;84.20
75769;DHT22;64379;48.888;8.330;2024-03-07T02:49:05;5.30;84.00
75769;DHT22;64379;48.888;8.330;2024-03-07T02:51:31;5.20;84.40
75769;DHT22;64379;48.888;8.330;2024-03-07T02:53:57;5.10;84.70
75769;DHT22;64379;48.888;8.330;2024-03-07T02:56:23;5.00;85.10
75769;DHT22;64379;48.888;8.330;2024-03-07T02:58:49;5.10;85.30
75769;DHT22;64379;48.888;8.330;2024-03-07T03:01:14;5.10;85.40
75769;DHT22;64379;48.888;8.330;2024-03-07T03:03:40;5.10;85.10
75769;DHT22;64379;48.888;8.330;2024-03-07T03:06:08;5.10;85.10
75769;DHT22;64379;48.888;8.330;2024-03-07T03:08:34;5.10;84.90
75769;DHT22;64379;48.888;8.330;2024-03-07T03:11:00;5.10;84.50
75769;DHT22;64379;48.888;8.330;2024-03-07T03:13:26;5.20;84.00
75769;DHT22;64379;48.888;8.330;2024-03-07T03:15:53;5.20;83.80
75769;DHT22;64379;48.888;8.330;2024-03-07T03:18:21;5.10;84.00
75769;DHT22;64379;48.888;8.330;2024-03-07T03:20:47;5.00;84.10
75769;DHT22;64379;48.888;8.330;2024-03-07T03:23:13;4.90;84.50
75769;DHT22;64379;48.888;8.330;2024-03-07T03:25:40;4.90;84.60
75769;DHT22;64379;48.888;8.330;2024-03-07T03:28:06;4.90;84.60
75769;DHT22;64379;48.888;8.330;2024-03-07T03:30:38;4.80;84.60
75769;DHT22;64379;48.888;8.330;2024-03-07T03:33:04;4.70;84.80
75769;DHT22;64379;48.888;8.330;2024-03-07T03:35:31;4.70;84.90
75769;DHT22;64379;48.888;8.330;2024-03-07T03:37:56;4.70;84.70
75769;DHT22;64379;48.888;8.330;2024-03-07T03:40:22;4.80;84.10
75769;DHT22;64379;48.888;8.330;2024-03-07T03:42:47;4.70;84.10
75769;DHT22;64379;48.888;8.330;2024-03-07T03:45:14;4.70;84.10
75769;DHT22;64379;48.888;8.330;2024-03-07T03:47:41;4.50;84.50
75769;DHT22;64379;48.888;8.330;2024-03-07T03:50:09;4.50;84.70
75769;DHT22;64379;48.888;8.330;2024-03-07T03:52:35;4.50;84.70
75769;DHT22;64379;48.888;8.330;2024-03-07T03:55:02;4.40;85.00
75769;DHT22;64379;48.888;8.330;2024-03-07T03:57:28;4.30;85.20
75769;DHT22;64379;48.888;8.330;2024-03-07T03:59:55;4.40;84.90
75769;DHT22;64379;48.888;8.330;2024-03-07T04:02:22;4.40;84.60
75769;DHT22;64379;48.888;8.330;2024-03-07T04:04:51;4.40;84.70
75769;DHT22;64379;48.888;8.330;2024-03-07T04:07:20;4.30;84.70
75769;DHT22;64379;48.888;8.330;2024-03-07T04:09:46;4.10;84.90
75769;DHT22;64379;48.888;8.330;2024-03-07T04:12:12;4.00;85.30
75769;DHT22;64379;48.888;8.330;2024-03-07T04:14:42;3.90;85.70
75769;DHT22;64379;48.888;8.330;2024-03-07T04:17:09;3.90;85.90
75769;DHT22;64379;48.888;8.330;2024-03-07T04:19:43;3.70;85.90
75769;DHT22;64379;48.888;8.330;2024-03-07T04:22:09;3.70;86.20
75769;DHT22;64379;48.888;8.330;2024-03-07T04:24:35;3.60;86.30
75769;DHT22;64379;48.888;8.330;2024-03-07T04:27:02;3.60;86.40
75769;DHT22;64379;48.888;8.330;2024-03-07T04:29:31;3.70;86.00
75769;DHT22;64379;48.888;8.330;2024-03-07T04:31:58;3.70;85.80
75769;DHT22;64379;48.888;8.330;2024-03-07T04:34:23;3.70;85.40
75769;DHT22;64379;48.888;8.330;2024-03-07T04:36:49;3.70;85.20
75769;DHT22;64379;48.888;8.330;2024-03-07T04:39:14;3.70;84.50
75769;DHT22;64379;48.888;8.330;2024-03-07T04:41:51;3.90;83.70
75769;DHT22;64379;48.888;8.330;2024-03-07T04:44:18;3.70;83.50
75769;DHT22;64379;48.888;8.330;2024-03-07T04:46:47;3.70;83.20
75769;DHT22;64379;48.888;8.330;2024-03-07T04:49:14;3.70;82.80
75769;DHT22;64379;48.888;8.330;2024-03-07T04:51:40;3.70;82.70
75769;DHT22;64379;48.888;8.330;2024-03-07T04:54:05;3.70;82.30
75769;DHT22;64379;48.888;8.330;2024-03-07T04:56:32;3.70;82.20
75769;DHT22;64379;48.888;8.330;2024-03-07T04:58:57;3.80;81.70
75769;DHT22;64379;48.888;8.330;2024-03-07T05:01:23;3.70;82.00
75769;DHT22;64379;48.888;8.330;2024-03-07T05:03:50;3.60;82.30
75769;DHT22;64379;48.888;8.330;2024-03-07T05:06:17;3.50;82.50
75769;DHT22;64379;48.888;8.330;2024-03-07T05:08:43;3.50;82.80
75769;DHT22;64379;48.888;8.330;2024-03-07T05:11:09;3.50;82.80
75769;DHT22;64379;48.888;8.330;2024-03-07T05:13:35;3.50;82.70
75769;DHT22;64379;48.888;8.330;2024-03-07T05:16:02;3.50;82.80
75769;DHT22;64379;48.888;8.330;2024-03-07T05:18:28;3.50;82.70
75769;DHT22;64379;48.888;8.330;2024-03-07T05:20:54;3.50;82.50
75769;DHT22;64379;48.888;8.330;2024-03-07T05:23:20;3.50;82.60
75769;DHT22;64379;48.888;8.330;2024-03-07T05:25:46;3.40;82.60
75769;DHT22;64379;48.888;8.330;2024-03-07T05:28:11;3.30;82.80
75769;DHT22;64379;48.888;8.330;2024-03-07T05:30:37;3.30;83.00
75769;DHT22;64379;48.888;8.330;2024-03-07T05:33:03;3.30;83.10
75769;DHT22;64379;48.888;8.330;2024-03-07T05:35:29;3.20;83.10
75769;DHT22;64379;48.888;8.330;2024-03-07T05:37:55;3.10;83.20
75769;DHT22;64379;48.888;8.330;2024-03-07T05:40:22;3.10;83.20
75769;DHT22;64379;48.888;8.330;2024-03-07T05:42:48;3.10;83.10
75769;DHT22;64379;48.888;8.330;2024-03-07T05:45:14;3.10;83.10
75769;DHT22;64379;48.888;8.330;2024-03-07T05:47:40;3.10;83.00
75769;DHT22;64379;48.888;8.330;2024-03-07T05:50:06;3.20;82.80
75769;DHT22;64379;48.888;8.330;2024-03-07T05:52:36;3.30;82.50
75769;DHT22;64379;48.888;8.330;2024-03-07T05:55:02;3.30;82.30
75769;DHT22;64379;48.888;8.330;2024-03-07T05:57:28;3.20;82.20
75769;DHT22;64379;48.888;8.330;2024-03-07T05:59:54;3.20;82.40
75769;DHT22;64379;48.888;8.330;2024-03-07T06:02:19;3.20;82.30
75769;DHT22;64379;48.888;8.330;2024-03-07T06:04:45;3.10;82.20
75769;DHT22;64379;48.888;8.330;2024-03-07T06:07:11;3.20;82.10
75769;DHT22;64379;48.888;8.330;2024-03-07T06:09:37;3.20;81.70
75769;DHT22;64379;48.888;8.330;2024-03-07T06:12:03;3.20;81.70
75769;DHT22;64379;48.888;8.330;2024-03-07T06:14:29;3.30;81.40
75769;DHT22;64379;48.888;8.330;2024-03-07T06:16:56;3.30;80.90
75769;DHT22;64379;48.888;8.330;2024-03-07T06:19:23;3.30;80.70
75769;DHT22;64379;48.888;8.330;2024-03-07T06:21:49;3.30;80.60
75769;DHT22;64379;48.888;8.330;2024-03-07T06:24:15;3.30;80.80
75769;DHT22;64379;48.888;8.330;2024-03-07T06:26:43;3.30;81.20
75769;DHT22;64379;48.888;8.330;2024-03-07T06:29:29;3.30;81.40
75769;DHT22;64379;48.888;8.330;2024-03-07T06:31:54;3.30;81.20
75769;DHT22;64379;48.888;8.330;2024-03-07T06:34:20;3.20;81.60
75769;DHT22;64379;48.888;8.330;2024-03-07T06:36:46;3.20;81.40
75769;DHT22;64379;48.888;8.330;2024-03-07T06:39:11;3.20;81.40
75769;DHT22;64379;48.888;8.330;2024-03-07T06:41:38;3.30;81.30
75769;DHT22;64379;48.888;8.330;2024-03-07T06:44:04;3.30;80.70
75769;DHT22;64379;48.888;8.330;2024-03-07T06:46:30;3.40;80.40
75769;DHT22;64379;48.888;8.330;2024-03-07T06:48:57;3.50;79.80
75769;DHT22;64379;48.888;8.330;2024-03-07T06:51:23;3.60;79.70
75769;DHT22;64379;48.888;8.330;2024-03-07T06:53:50;3.70;78.80
75769;DHT22;64379;48.888;8.330;2024-03-07T06:56:15;3.80;79.00
75769;DHT22;64379;48.888;8.330;2024-03-07T06:58:42;3.90;78.40
75769;DHT22;64379;48.888;8.330;2024-03-07T07:01:11;3.90;78.30
75769;DHT22;64379;48.888;8.330;2024-03-07T07:03:40;4.00;78.20
75769;DHT22;64379;48.888;8.330;2024-03-07T07:06:09;4.00;77.60
75769;DHT22;64379;48.888;8.330;2024-03-07T07:08:36;4.00;78.30
75769;DHT22;64379;48.888;8.330;2024-03-07T07:11:02;4.20;77.80
75769;DHT22;64379;48.888;8.330;2024-03-07T07:13:29;4.20;77.20
75769;DHT22;64379;48.888;8.330;2024-03-07T07:15:55;4.50;76.60
75769;DHT22;64379;48.888;8.330;2024-03-07T07:18:21;4.50;75.30
75769;DHT22;64379;48.888;8.330;2024-03-07T07:20:49;4.70;74.90
75769;DHT22;64379;48.888;8.330;2024-03-07T07:23:17;4.70;74.60
75769;DHT22;64379;48.888;8.330;2024-03-07T07:25:42;4.70;74.60
75769;DHT22;64379;48.888;8.330;2024-03-07T07:28:08;4.70;74.60
75769;DHT22;64379;48.888;8.330;2024-03-07T07:30:36;5.30;74.20
75769;DHT22;64379;48.888;8.330;2024-03-07T07:33:03;5.20;72.10
75769;DHT22;64379;48.888;8.330;2024-03-07T07:35:28;5.60;71.40
75769;DHT22;64379;48.888;8.330;2024-03-07T07:37:54;5.80;71.90
75769;DHT22;64379;48.888;8.330;2024-03-07T07:40:22;5.90;71.70
75769;DHT22;64379;48.888;8.330;2024-03-07T07:42:49;6.30;69.60
75769;DHT22;64379;48.888;8.330;2024-03-07T07:45:17;6.00;70.10
75769;DHT22;64379;48.888;8.330;2024-03-07T07:47:48;6.00;68.80
75769;DHT22;64379;48.888;8.330;2024-03-07T07:50:21;5.70;70.30
75769;DHT22;64379;48.888;8.330;2024-03-07T07:55:14;5.80;68.60
75769;DHT22;64379;48.888;8.330;2024-03-07T07:57:44;5.70;69.80
75769;DHT22;64379;48.888;8.330;2024-03-07T08:00:24;5.30;70.40
75769;DHT22;64379;48.888;8.330;2024-03-07T08:03:01;5.20;71.70
75769;DHT22;64379;48.888;8.330;2024-03-07T08:05:33;5.20;71.10
75769;DHT22;64379;48.888;8.330;2024-03-07T08:08:00;5.40;72.20
75769;DHT22;64379;48.888;8.330;2024-03-07T08:10:30;5.50;71.40
75769;DHT22;64379;48.888;8.330;2024-03-07T08:13:00;5.30;71.60
75769;DHT22;64379;48.888;8.330;2024-03-07T08:15:27;5.30;71.20
75769;DHT22;64379;48.888;8.330;2024-03-07T08:17:53;5.50;71.20
75769;DHT22;64379;48.888;8.330;2024-03-07T08:20:21;5.40;70.70
75769;DHT22;64379;48.888;8.330;2024-03-07T08:22:49;5.60;71.40
75769;DHT22;64379;48.888;8.330;2024-03-07T08:25:18;5.70;70.80
75769;DHT22;64379;48.888;8.330;2024-03-07T08:27:46;5.70;70.50
75769;DHT22;64379;48.888;8.330;2024-03-07T08:30:13;5.70;69.50
75769;DHT22;64379;48.888;8.330;2024-03-07T08:32:40;5.60;70.10
75769;DHT22;64379;48.888;8.330;2024-03-07T08:35:07;5.50;70.70
75769;DHT22;64379;48.888;8.330;2024-03-07T08:37:39;5.80;70.20
75769;DHT22;64379;48.888;8.330;2024-03-07T08:40:06;5.80;69.40
75769;DHT22;64379;48.888;8.330;2024-03-07T08:42:33;5.70;69.80
75769;DHT22;64379;48.888;8.330;2024-03-07T08:45:03;5.70;69.70
75769;DHT22;64379;48.888;8.330;2024-03-07T08:47:32;5.80;69.10
75769;DHT22;64379;48.888;8.330;2024-03-07T08:49:59;5.80;69.90
75769;DHT22;64379;48.888;8.330;2024-03-07T08:52:25;5.90;69.50
75769;DHT22;64379;48.888;8.330;2024-03-07T08:54:50;5.90;69.90
75769;DHT22;64379;48.888;8.330;2024-03-07T08:57:16;6.00;68.50
75769;DHT22;64379;48.888;8.330;2024-03-07T08:59:46;6.10;68.50
75769;DHT22;64379;48.888;8.330;2024-03-07T09:02:11;6.20;68.90
75769;DHT22;64379;48.888;8.330;2024-03-07T09:04:40;6.30;68.20
75769;DHT22;64379;48.888;8.330;2024-03-07T09:07:06;6.20;67.80
75769;DHT22;64379;48.888;8.330;2024-03-07T09:09:33;6.00;68.00
75769;DHT22;64379;48.888;8.330;2024-03-07T09:12:00;6.10;68.90
75769;DHT22;64379;48.888;8.330;2024-03-07T09:14:29;6.10;67.40
75769;DHT22;64379;48.888;8.330;2024-03-07T09:16:55;6.10;69.00
75769;DHT22;64379;48.888;8.330;2024-03-07T09:19:21;6.20;67.70
75769;DHT22;64379;48.888;8.330;2024-03-07T09:21:51;6.10;67.90
75769;DHT22;64379;48.888;8.330;2024-03-07T09:24:18;6.20;67.30
75769;DHT22;64379;48.888;8.330;2024-03-07T09:26:47;6.40;67.50
75769;DHT22;64379;48.888;8.330;2024-03-07T09:29:14;6.40;65.70
75769;DHT22;64379;48.888;8.330;2024-03-07T09:31:39;6.50;66.50
75769;DHT22;64379;48.888;8.330;2024-03-07T09:34:05;6.70;66.60
75769;DHT22;64379;48.888;8.330;2024-03-07T09:36:31;6.80;66.50
75769;DHT22;64379;48.888;8.330;2024-03-07T09:38:57;6.70;65.40
75769;DHT22;64379;48.888;8.330;2024-03-07T09:41:23;6.70;64.70
75769;DHT22;64379;48.888;8.330;2024-03-07T09:43:52;6.60;65.10
75769;DHT22;64379;48.888;8.330;2024-03-07T09:46:22;6.70;65.00
75769;DHT22;64379;48.888;8.330;2024-03-07T09:48:49;7.00;64.60
75769;DHT22;64379;48.888;8.330;2024-03-07T09:51:20;7.00;64.50
75769;DHT22;64379;48.888;8.330;2024-03-07T09:53:48;6.90;65.10
75769;DHT22;64379;48.888;8.330;2024-03-07T09:56:17;7.00;64.40
75769;DHT22;64379;48.888;8.330;2024-03-07T09:58:48;7.00;64.20
75769;DHT22;64379;48.888;8.330;2024-03-07T10:01:15;7.10;64.00
75769;DHT22;64379;48.888;8.330;2024-03-07T10:03:43;7.20;63.60
75769;DHT22;64379;48.888;8.330;2024-03-07T10:06:10;7.20;63.90
75769;DHT22;64379;48.888;8.330;2024-03-07T10:08:36;7.30;64.50
75769;DHT22;64379;48.888;8.330;2024-03-07T10:11:02;7.50;63.60
75769;DHT22;64379;48.888;8.330;2024-03-07T10:13:28;7.60;62.70
75769;DHT22;64379;48.888;8.330;2024-03-07T10:15:56;7.70;62.70
75769;DHT22;64379;48.888;8.330;2024-03-07T10:18:25;7.80;63.70
75769;DHT22;64379;48.888;8.330;2024-03-07T10:20:56;7.60;61.20
75769;DHT22;64379;48.888;8.330;2024-03-07T10:23:22;7.50;62.80
75769;DHT22;64379;48.888;8.330;2024-03-07T10:25:49;7.90;63.00
75769;DHT22;64379;48.888;8.330;2024-03-07T10:28:18;8.00;62.10
75769;DHT22;64379;48.888;8.330;2024-03-07T10:30:44;7.80;61.70
75769;DHT22;64379;48.888;8.330;2024-03-07T10:33:11;8.00;63.20
75769;DHT22;64379;48.888;8.330;2024-03-07T10:35:38;8.10;62.00
75769;DHT22;64379;48.888;8.330;2024-03-07T10:38:03;8.20;62.40
75769;DHT22;64379;48.888;8.330;2024-03-07T10:40:33;8.30;61.50
75769;DHT22;64379;48.888;8.330;2024-03-07T10:43:01;8.30;61.00
75769;DHT22;64379;48.888;8.330;2024-03-07T10:45:40;8.10;62.40
75769;DHT22;64379;48.888;8.330;2024-03-07T10:48:11;7.70;61.80
75769;DHT22;64379;48.888;8.330;2024-03-07T10:53:56;7.50;62.60
75769;DHT22;64379;48.888;8.330;2024-03-07T10:59:16;7.80;63.50
75769;DHT22;64379;48.888;8.330;2024-03-07T11:04:21;7.50;63.50
75769;DHT22;64379;48.888;8.330;2024-03-07T11:06:47;7.50;64.20
75769;DHT22;64379;48.888;8.330;2024-03-07T11:09:15;7.40;64.50
75769;DHT22;64379;48.888;8.330;2024-03-07T11:11:48;7.80;64.00
75769;DHT22;64379;48.888;8.330;2024-03-07T11:14:14;8.10;61.90
75769;DHT22;64379;48.888;8.330;2024-03-07T11:16:42;8.20;61.50
75769;DHT22;64379;48.888;8.330;2024-03-07T11:19:27;8.30;60.70
75769;DHT22;64379;48.888;8.330;2024-03-07T11:21:57;8.60;60.10
75769;DHT22;64379;48.888;8.330;2024-03-07T11:24:30;8.60;60.90
75769;DHT22;64379;48.888;8.330;2024-03-07T11:26:59;8.40;59.60
75769;DHT22;64379;48.888;8.330;2024-03-07T11:29:47;8.60;60.10
75769;DHT22;64379;48.888;8.330;2024-03-07T11:32:14;8.60;60.60
75769;DHT22;64379;48.888;8.330;2024-03-07T11:34:44;8.60;59.80
75769;DHT22;64379;48.888;8.330;2024-03-07T11:37:38;8.60;60.50
75769;DHT22;64379;48.888;8.330;2024-03-07T11:40:12;8.60;60.70
75769;DHT22;64379;48.888;8.330;2024-03-07T11:42:45;8.80;60.50
75769;DHT22;64379;48.888;8.330;2024-03-07T11:45:13;8.60;60.00
75769;DHT22;64379;48.888;8.330;2024-03-07T11:47:56;8.60;59.20
75769;DHT22;64379;48.888;8.330;2024-03-07T11:50:29;9.00;60.20
75769;DHT22;64379;48.888;8.330;2024-03-07T11:53:01;9.20;58.60
75769;DHT22;64379;48.888;8.330;2024-03-07T11:55:27;9.40;58.20
75769;DHT22;64379;48.888;8.330;2024-03-07T11:57:59;9.40;57.80
75769;DHT22;64379;48.888;8.330;2024-03-07T12:00:25;9.80;57.20
75769;DHT22;64379;48.888;8.330;2024-03-07T12:02:54;9.80;56.00
75769;DHT22;64379;48.888;8.330;2024-03-07T12:05:20;10.00;56.10
75769;DHT22;64379;48.888;8.330;2024-03-07T12:07:45;10.00;56.70
75769;DHT22;64379;48.888;8.330;2024-03-07T12:10:11;9.90;56.20
75769;DHT22;64379;48.888;8.330;2024-03-07T12:12:37;9.40;56.40
75769;DHT22;64379;48.888;8.330;2024-03-07T12:15:05;9.70;56.20
75769;DHT22;64379;48.888;8.330;2024-03-07T12:17:35;9.60;56.00
75769;DHT22;64379;48.888;8.330;2024-03-07T12:20:01;9.40;55.80
75769;DHT22;64379;48.888;8.330;2024-03-07T12:22:47;9.40;56.20
75769;DHT22;64379;48.888;8.330;2024-03-07T12:25:18;9.50;55.10
75769;DHT22;64379;48.888;8.330;2024-03-07T12:27:47;9.50;55.10
75769;DHT22;64379;48.888;8.330;2024-03-07T12:30:16;9.90;54.70
75769;DHT22;64379;48.888;8.330;2024-03-07T12:32:49;10.60;54.00
75769;DHT22;64379;48.888;8.330;2024-03-07T12:35:15;10.60;51.70
75769;DHT22;64379;48.888;8.330;2024-03-07T12:37:40;10.90;52.50
75769;DHT22;64379;48.888;8.330;2024-03-07T12:40:16;11.50;50.40
75769;DHT22;64379;48.888;8.330;2024-03-07T12:42:48;11.70;50.30
75769;DHT22;64379;48.888;8.330;2024-03-07T12:45:16;11.50;50.90
75769;DHT22;64379;48.888;8.330;2024-03-07T12:47:47;12.00;49.70
75769;DHT22;64379;48.888;8.330;2024-03-07T12:50:17;12.50;48.70
75769;DHT22;64379;48.888;8.330;2024-03-07T12:52:43;12.70;47.30
75769;DHT22;64379;48.888;8.330;2024-03-07T12:55:08;13.30;46.90
75769;DHT22;64379;48.888;8.330;2024-03-07T12:57:34;12.70;47.50
75769;DHT22;64379;48.888;8.330;2024-03-07T12:59:59;10.90;51.10
75769;DHT22;64379;48.888;8.330;2024-03-07T13:02:25;9.90;52.60
75769;DHT22;64379;48.888;8.330;2024-03-07T13:04:55;10.00;54.00
75769;DHT22;64379;48.888;8.330;2024-03-07T13:07:21;10.00;53.20
75769;DHT22;64379;48.888;8.330;2024-03-07T13:09:46;9.60;55.30
75769;DHT22;64379;48.888;8.330;2024-03-07T13:12:13;10.30;54.30
75769;DHT22;64379;48.888;8.330;2024-03-07T13:14:40;11.10;52.20
75769;DHT22;64379;48.888;8.330;2024-03-07T13:17:05;10.60;52.30
75769;DHT22;64379;48.888;8.330;2024-03-07T13:19:32;10.60;52.70
75769;DHT22;64379;48.888;8.330;2024-03-07T13:21:58;10.90;51.10
75769;DHT22;64379;48.888;8.330;2024-03-07T13:24:25;10.80;51.60
75769;DHT22;64379;48.888;8.330;2024-03-07T13:26:51;11.50;50.50
75769;DHT22;64379;48.888;8.330;2024-03-07T13:29:17;11.30;50.80
75769;DHT22;64379;48.888;8.330;2024-03-07T13:31:44;11.10;52.50
75769;DHT22;64379;48.888;8.330;2024-03-07T13:34:10;12.00;49.50
75769;DHT22;64379;48.888;8.330;2024-03-07T13:36:40;12.50;49.50
75769;DHT22;64379;48.888;8.330;2024-03-07T13:39:06;12.20;49.30
75769;DHT22;64379;48.888;8.330;2024-03-07T13:41:36;12.10;49.30
75769;DHT22;64379;48.888;8.330;2024-03-07T13:44:02;11.30;50.50
75769;DHT22;64379;48.888;8.330;2024-03-07T13:46:28;11.10;50.80
75769;DHT22;64379;48.888;8.330;2024-03-07T13:48:54;11.50;51.20
75769;DHT22;64379;48.888;8.330;2024-03-07T13:51:26;11.90;47.80
75769;DHT22;64379;48.888;8.330;2024-03-07T13:53:52;11.80;49.00
75769;DHT22;64379;48.888;8.330;2024-03-07T13:57:28;12.20;47.90
75769;DHT22;64379;48.888;8.330;2024-03-07T14:06:06;11.10;50.30
75769;DHT22;64379;48.888;8.330;2024-03-07T14:23:36;10.30;52.10
75769;DHT22;64379;48.888;8.330;2024-03-07T14:29:41;10.10;52.90
75769;DHT22;64379;48.888;8.330;2024-03-07T14:32:10;10.00;53.60
75769;DHT22;64379;48.888;8.330;2024-03-07T14:34:56;9.90;54.20
75769;DHT22;64379;48.888;8.330;2024-03-07T14:37:28;9.80;55.20
75769;DHT22;64379;48.888;8.330;2024-03-07T14:40:10;9.60;57.60
75769;DHT22;64379;48.888;8.330;2024-03-07T14:42:44;9.40;57.60
75769;DHT22;64379;48.888;8.330;2024-03-07T14:45:14;9.00;57.80
75769;DHT22;64379;48.888;8.330;2024-03-07T14:47:45;9.00;58.10
75769;DHT22;64379;48.888;8.330;2024-03-07T14:50:12;9.10;57.50
75769;DHT22;64379;48.888;8.330;2024-03-07T14:52:44;9.00;58.40
75769;DHT22;64379;48.888;8.330;2024-03-07T14:55:10;9.00;59.00
75769;DHT22;64379;48.888;8.330;2024-03-07T14:57:42;9.00;60.10
75769;DHT22;64379;48.888;8.330;2024-03-07T15:00:11;9.00;60.10
75769;DHT22;64379;48.888;8.330;2024-03-07T15:02:47;9.00;59.70
75769;DHT22;64379;48.888;8.330;2024-03-07T15:05:14;9.00;59.70
75769;DHT22;64379;48.888;8.330;2024-03-07T15:07:42;9.20;60.30
75769;DHT22;64379;48.888;8.330;2024-03-07T15:10:15;9.20;59.00
75769;DHT22;64379;48.888;8.330;2024-03-07T15:12:45;9.20;59.20
75769;DHT22;64379;48.888;8.330;2024-03-07T15:15:12;9.20;60.00
75769;DHT22;64379;48.888;8.330;2024-03-07T15:17:42;9.20;59.40
75769;DHT22;64379;48.888;8.330;2024-03-07T15:20:11;9.30;58.90
75769;DHT22;64379;48.888;8.330;2024-03-07T15:22:50;9.40;59.70
75769;DHT22;64379;48.888;8.330;2024-03-07T15:25:16;9.30;60.30
75769;DHT22;64379;48.888;8.330;2024-03-07T15:27:44;9.20;59.70
75769;DHT22;64379;48.888;8.330;2024-03-07T15:30:11;9.00;60.90
75769;DHT22;64379;48.888;8.330;2024-03-07T15:32:40;9.00;61.20
75769;DHT22;64379;48.888;8.330;2024-03-07T15:35:08;9.20;60.20
75769;DHT22;64379;48.888;8.330;2024-03-07T15:37:38;9.20;60.90
75769;DHT22;64379;48.888;8.330;2024-03-07T15:40:08;9.00;59.80
75769;DHT22;64379;48.888;8.330;2024-03-07T15:42:44;8.90;61.00
75769;DHT22;64379;48.888;8.330;2024-03-07T15:45:29;8.90;60.30
75769;DHT22;64379;48.888;8.330;2024-03-07T15:47:57;8.90;61.20
75769;DHT22;64379;48.888;8.330;2024-03-07T15:50:30;8.80;61.60
75769;DHT22;64379;48.888;8.330;2024-03-07T15:52:57;8.90;61.70
75769;DHT22;64379;48.888;8.330;2024-03-07T15:55:26;8.90;61.70
75769;DHT22;64379;48.888;8.330;2024-03-07T15:57:54;8.80;61.60
75769;DHT22;64379;48.888;8.330;2024-03-07T16:00:22;8.90;61.90
75769;DHT22;64379;48.888;8.330;2024-03-07T16:03:01;8.90;61.40
75769;DHT22;64379;48.888;8.330;2024-03-07T16:05:30;8.90;61.80
75769;DHT22;64379;48.888;8.330;2024-03-07T16:07:57;8.90;61.30
75769;DHT22;64379;48.888;8.330;2024-03-07T16:10:25;9.00;60.90
75769;DHT22;64379;48.888;8.330;2024-03-07T16:12:52;9.00;60.80
75769;DHT22;64379;48.888;8.330;2024-03-07T16:15:19;9.00;60.70
75769;DHT22;64379;48.888;8.330;2024-03-07T16:17:49;9.00;60.90
75769;DHT22;64379;48.888;8.330;2024-03-07T16:20:15;8.90;60.20
75769;DHT22;64379;48.888;8.330;2024-03-07T16:22:44;8.90;61.10
75769;DHT22;64379;48.888;8.330;2024-03-07T17:22:54;7.20;65.70